»·PEaware :: DAL212 KSEA-KJAC

DAL212 :: KSEA-KJAC

FLIGHT INFORMATION

Flight Status: Arrived
Operator:
Delta Air Lines
More flights by this operator :: More flights under this callsign
Pilot: Anonymous 14085 (14085)
Aircraft: BOEING 757-200
(B752)
More flights by this aircraft type
Origin: KSEA Seattle-Tacoma Intl
United States
Destination: KJAC Jackson Hole
United States
More flights between these airports :: More routes between these airports
Route: +SEA5 SEA NORMY J90 MWH LKT
File this flight plan on PilotEdge
Remarks:
Altitude:
(Current/Filed)
39,000ft
Speed:
(Current/Filed)
450kts
Departed: 28-Jan-17 09:49 PM
Arrived: 28-Jan-17 11:11 PM
Distance/Time
Traveled:
538nm/1:22
Distance/Time
To Go:
Arrived

Flight Plot

Page will automatically refresh every two minutes.

Flight plan parsing failed; only flown route is shown


Map Options




Map Legend


Flown Route
Filed Route
Departure Airport
Arrival Airport
Navaid (VOR, NDB)
Fix

Horizontal Profiles

Position Reports

Time Latitude Longitude Heading Altitude Ground
Speed
28-Jan-17 21:28 47.445163 -122.301845 133 445ft 0kts
28-Jan-17 21:29 47.445163 -122.301845 133 444ft 0kts
28-Jan-17 21:30 47.445163 -122.301845 133 444ft 0kts
28-Jan-17 21:31 47.445163 -122.301845 133 444ft 0kts
28-Jan-17 21:32 47.445163 -122.301845 133 444ft 0kts
28-Jan-17 21:33 47.445163 -122.301845 133 444ft 0kts
28-Jan-17 21:34 47.445163 -122.301845 133 444ft 0kts
28-Jan-17 21:35 47.445163 -122.301845 133 444ft 0kts
28-Jan-17 21:36 47.445163 -122.301845 133 444ft 0kts
28-Jan-17 21:37 47.445163 -122.301845 133 444ft 0kts
28-Jan-17 21:38 47.445163 -122.301845 133 444ft 0kts
28-Jan-17 21:39 47.445329 -122.302104 133 444ft 2kts
28-Jan-17 21:40 47.445759 -122.302776 133 445ft 2kts
28-Jan-17 21:41 47.445870 -122.302949 133 444ft 0kts
28-Jan-17 21:42 47.445870 -122.302949 133 444ft 0kts
28-Jan-17 21:43 47.445932 -122.302199 2 444ft 7kts
28-Jan-17 21:44 47.447587 -122.304088 305 444ft 7kts
28-Jan-17 21:45 47.450024 -122.305179 22 444ft 16kts
28-Jan-17 21:46 47.456512 -122.304988 1 444ft 15kts
28-Jan-17 21:47 47.457546 -122.306161 354 445ft 9kts
28-Jan-17 21:48 47.459444 -122.307753 173 444ft 22kts
28-Jan-17 21:49 47.422802 -122.308928 182 1346ft 204kts
28-Jan-17 21:50 47.358875 -122.305232 174 4334ft 253kts
28-Jan-17 21:51 47.311183 -122.246212 89 7446ft 273kts
28-Jan-17 21:52 47.347376 -122.148906 46 10169ft 296kts
28-Jan-17 21:53 47.385094 -122.030362 76 12189ft 360kts
28-Jan-17 21:54 47.404518 -121.877724 81 14947ft 390kts
28-Jan-17 21:55 47.424439 -121.714645 82 17389ft 415kts
28-Jan-17 21:56 47.421684 -121.543472 94 19801ft 429kts
28-Jan-17 21:57 47.418899 -121.394936 93 21572ft 442kts
28-Jan-17 21:58 47.415810 -121.207765 93 23243ft 466kts
28-Jan-17 21:59 47.412094 -121.014122 92 25011ft 481kts
28-Jan-17 22:00 47.408473 -120.815349 92 26587ft 494kts
28-Jan-17 22:01 47.404282 -120.610441 92 27988ft 506kts
28-Jan-17 22:02 47.394599 -120.400660 105 28820ft 525kts
28-Jan-17 22:03 47.359167 -120.190323 106 30048ft 534kts
28-Jan-17 22:04 47.321630 -119.976307 106 31128ft 544kts
28-Jan-17 22:05 47.284220 -119.762374 107 32398ft 545kts
28-Jan-17 22:06 47.247461 -119.556866 107 35518ft 494kts
28-Jan-17 22:07 47.211820 -119.361802 110 36354ft 495kts
28-Jan-17 22:08 47.151960 -119.184945 123 37308ft 482kts
28-Jan-17 22:09 47.086824 -119.014485 124 38061ft 480kts
28-Jan-17 22:10 47.022043 -118.845908 122 38564ft 485kts
28-Jan-17 22:11 46.955107 -118.672451 121 39090ft 496kts
28-Jan-17 22:12 46.886704 -118.497473 121 39628ft 506kts
28-Jan-17 22:13 46.815795 -118.317372 121 39701ft 510kts
28-Jan-17 22:14 46.744631 -118.137877 121 39703ft 516kts
28-Jan-17 22:15 46.672282 -117.956630 121 39691ft 522kts
28-Jan-17 22:16 46.600530 -117.776203 121 39677ft 525kts
28-Jan-17 22:17 46.526772 -117.593191 121 39659ft 526kts
28-Jan-17 22:18 46.456030 -117.419366 121 39674ft 526kts
28-Jan-17 22:19 46.382915 -117.240911 121 39686ft 526kts
28-Jan-17 22:20 46.307968 -117.059197 121 39688ft 527kts
28-Jan-17 22:21 46.233735 -116.880324 120 39684ft 528kts
28-Jan-17 22:22 46.158575 -116.698202 121 39684ft 530kts
28-Jan-17 22:23 46.082081 -116.516061 121 39664ft 533kts
28-Jan-17 22:24 46.005122 -116.334244 121 39632ft 534kts
28-Jan-17 22:25 45.927790 -116.152752 121 39634ft 534kts
28-Jan-17 22:26 45.850022 -115.971426 121 39637ft 534kts
28-Jan-17 22:27 45.773343 -115.792136 121 39630ft 534kts
28-Jan-17 22:28 45.695414 -115.611966 122 39632ft 534kts
28-Jan-17 22:29 45.616936 -115.432388 122 39634ft 534kts
28-Jan-17 22:30 45.538275 -115.253601 122 39637ft 534kts
28-Jan-17 22:31 45.459094 -115.074821 121 39702ft 534kts
28-Jan-17 22:32 45.381183 -114.899938 121 39773ft 534kts
28-Jan-17 22:33 45.303165 -114.723814 121 39776ft 534kts
28-Jan-17 22:34 45.223302 -114.546462 121 39778ft 535kts
28-Jan-17 22:35 45.142873 -114.369249 121 39786ft 535kts
28-Jan-17 22:36 45.062504 -114.193328 120 39788ft 532kts
28-Jan-17 22:37 44.973173 -114.028254 129 39791ft 529kts
28-Jan-17 22:38 44.875628 -113.878093 130 39787ft 528kts
28-Jan-17 22:39 44.776803 -113.727055 131 39762ft 511kts
28-Jan-17 22:40 44.680576 -113.582276 131 39777ft 508kts
28-Jan-17 22:41 44.583855 -113.437677 131 39781ft 509kts
28-Jan-17 22:42 44.487250 -113.294011 131 39787ft 509kts
28-Jan-17 22:43 44.392194 -113.153368 131 39670ft 509kts
28-Jan-17 22:44 44.295021 -113.010332 131 39571ft 508kts
28-Jan-17 22:45 44.198950 -112.869354 130 39687ft 509kts
28-Jan-17 22:46 44.101950 -112.726790 131 39756ft 509kts
28-Jan-17 22:47 44.004163 -112.584897 131 39279ft 514kts
28-Jan-17 22:48 43.916009 -112.457727 131 37188ft 510kts
28-Jan-17 22:49 43.821185 -112.321565 131 34962ft 511kts
28-Jan-17 22:50 43.723675 -112.179319 124 33033ft 507kts
28-Jan-17 22:51 43.673594 -112.003880 87 31177ft 487kts
28-Jan-17 22:52 43.657842 -111.823624 108 29267ft 487kts
28-Jan-17 22:53 43.572149 -111.682832 147 27327ft 487kts
28-Jan-17 22:54 43.447194 -111.629579 170 25406ft 470kts
28-Jan-17 22:55 43.330234 -111.570574 141 23378ft 443kts
28-Jan-17 22:56 43.236511 -111.467964 138 21348ft 421kts
28-Jan-17 22:57 43.152003 -111.371313 137 19270ft 379kts
28-Jan-17 22:58 43.096191 -111.265426 94 17160ft 328kts
28-Jan-17 22:59 43.078773 -111.147501 95 14835ft 306kts
28-Jan-17 23:00 43.091506 -111.039763 44 12136ft 285kts
28-Jan-17 23:01 43.145454 -110.966515 34 11046ft 258kts
28-Jan-17 23:02 43.204496 -110.928714 11 10542ft 216kts
28-Jan-17 23:03 43.257970 -110.905784 17 11024ft 197kts
28-Jan-17 23:04 43.312549 -110.876574 19 11569ft 216kts
28-Jan-17 23:05 43.365470 -110.850215 18 11443ft 212kts
28-Jan-17 23:06 43.418434 -110.828631 16 11140ft 185kts
28-Jan-17 23:07 43.465365 -110.806809 18 9807ft 175kts
28-Jan-17 23:08 43.508550 -110.786650 18 8497ft 166kts
28-Jan-17 23:09 43.549014 -110.766363 19 7446ft 139kts
28-Jan-17 23:10 43.584175 -110.749015 19 6782ft 135kts
28-Jan-17 23:11 43.609141 -110.736641 64 6463ft 10kts
28-Jan-17 23:12 43.606464 -110.736593 199 6463ft 23kts

Navigation Log

Ident Type
Flight plan parsing failed, navigation log unavailable